Tuesday, July 25, 2017, 2:40 AM EDT

KUNV, State College, University Park Airport

Location: State College, PA, United States Lat: 40.85
Local Time: 2:40 AM EDT ( 6:40 GMT) Lon: -77.85
Time Zone: US/Eastern Elev: 1240 ft

Show me the last for .
Show Decoded

2017-07-25 02:15 METAR KUNV 250615Z AUTO 29006KT 10SM SCT030 SCT050 BKN065 18/13 A3001 RMK AO2
                 T01770132 =
2017-07-25 01:55 METAR KUNV 250555Z AUTO 29006KT 10SM BKN030 OVC050 18/13 A3001 RMK AO2 T01800133
                 10230 20180 =
2017-07-25 01:35 METAR KUNV 250535Z AUTO 30005KT 10SM BKN030 OVC050 18/14 A3001 RMK AO2 T01830135
                 =
2017-07-25 01:15 METAR KUNV 250515Z AUTO 28005KT 10SM SCT027 SCT033 OVC050 19/14 A3001 RMK AO2
                 T01870138 =
2017-07-25 00:55 METAR KUNV 250455Z AUTO 28007KT 10SM SCT033 BKN050 BKN065 19/14 A3000 RMK AO2
                 T01890135 =
2017-07-25 00:35 METAR KUNV 250435Z AUTO 27008KT 10SM BKN050 BKN065 BKN090 19/14 A2999 RMK AO2
                 T01890136 =
2017-07-25 00:15 METAR KUNV 250415Z AUTO 28004KT 10SM SCT031 SCT044 OVC050 19/13 A2999 RMK AO2
                 T01940133 =
2017-07-24 23:55 METAR KUNV 250355Z AUTO 30007KT 10SM OVC050 20/13 A2999 RMK AO2 T01950131
                 402780181 =
2017-07-24 23:35 METAR KUNV 250335Z AUTO 29007KT 10SM OVC050 20/14 A2998 RMK AO2 T01990135 =
2017-07-24 23:15 METAR KUNV 250315Z AUTO 28005KT 10SM OVC048 20/14 A2998 RMK AO2 T02000135 =
2017-07-24 22:55 METAR KUNV 250255Z AUTO 29005KT 10SM OVC050 20/14 A2998 RMK AO2 T02000135 =
2017-07-24 22:35 METAR KUNV 250235Z AUTO 31005G15KT 10SM SCT043 OVC050 21/14 A2997 RMK AO2
                 T02050137 =
2017-07-24 22:15 METAR KUNV 250215Z AUTO 29008KT 10SM SCT043 OVC050 21/14 A2996 RMK AO2 T02070138
                 =
2017-07-24 20:53 METAR KUNV 250053Z 31007KT 10SM SCT048 SCT065 22/14 A2992 =
2017-07-24 19:53 METAR KUNV 242353Z 32010KT 10SM SCT040 23/15 A2990 =
2017-07-24 18:53 METAR KUNV 242253Z 30010G21KT 10SM SCT040 25/16 A2987 =
2017-07-24 17:53 METAR KUNV 242153Z 31010G18KT 10SM SCT042 SCT055 BKN075 25/18 A2985 =
2017-07-24 16:53 METAR KUNV 242053Z 26009G15KT 10SM SCT050 SCT100 SCT120 26/19 A2984 =
2017-07-24 15:53 METAR KUNV 241953Z 24012KT 10SM OVC080 24/19 A2984 =
2017-07-24 14:53 METAR KUNV 241853Z 24012KT 10SM OVC090 26/18 A2983 =
2017-07-24 13:53 METAR KUNV 241753Z 24010KT 10SM SCT038 BKN100 27/19 A2982 =
2017-07-24 12:53 METAR KUNV 241653Z 00000KT 10SM SCT036 SCT047 26/19 A2983 =
2017-07-24 11:53 METAR KUNV 241553Z COR 00000KT 10SM SCT022 BKN028 BKN047 24/20 A2984 =
2017-07-24 10:53 METAR KUNV 241453Z 20005KT 10SM SCT015 BKN021 OVC027 22/20 A2985 =
2017-07-24 09:53 METAR KUNV 241353Z 20005KT 7SM BKN018 OVC023 21/20 A2985 =
2017-07-24 08:53 METAR KUNV 241253Z 00000KT 5SM BR SCT006 BKN015 OVC027 19/19 A2985 =
2017-07-24 07:53 METAR KUNV 241153Z 00000KT 7SM SCT002 BKN027 OVC050 19/18 A2984 =
2017-07-24 06:53 METAR KUNV 241053Z 00000KT 10SM SCT021 SCT065 BKN085 18/18 A2983 =
2017-07-24 05:53 METAR KUNV 240953Z 00000KT 5SM BR SCT013 SCT035 OVC085 18/18 A2981 =
2017-07-24 05:35 METAR KUNV 240935Z AUTO 05003KT 10SM SCT013 BKN035 OVC085 18/18 A2980 RMK AO2
                 T01830179 =
2017-07-24 05:15 METAR KUNV 240915Z AUTO 05004KT 10SM SCT006 BKN035 OVC047 18/18 A2980 RMK AO2
                 T01830180 =
2017-07-24 04:55 METAR KUNV 240855Z AUTO 00000KT 10SM -DZ SCT004 SCT010 OVC047 19/18 A2980 RMK
                 AO2 LTG DSNT N T01850181 =
2017-07-24 04:35 METAR KUNV 240835Z AUTO 35006KT 10SM BKN004 OVC008 19/18 A2980 RMK AO2 T01860182
                 =
2017-07-24 04:15 METAR KUNV 240815Z AUTO 35005KT 10SM OVC004 19/19 A2978 RMK AO2 LTG DSNT NE
                 T01870185 =
2017-07-24 03:55 METAR KUNV 240755Z AUTO 05004KT 10SM BKN004 BKN019 OVC070 19/18 A2977 RMK AO2
                 T01870184 =
2017-07-24 03:35 METAR KUNV 240735Z AUTO 05007KT 7SM RA SCT006 BKN021 OVC045 19/19 A2977 RMK AO2
                 P0005 T01900185 =
2017-07-24 03:15 METAR KUNV 240715Z AUTO 04006KT 7SM RA SCT006 OVC010 19/19 A2978 RMK AO2 P0002
                 T01930190 =
2017-07-24 02:55 METAR KUNV 240655Z AUTO 34006KT 10SM RA SCT004 OVC010 20/19 A2978 RMK AO2 LTG
                 DSNT SE T01950191 =

Support USWX by starting your Amazon purchase here.